sensor_id;sensor_type;location;lat;lon;timestamp;pressure;altitude;pressure_sealevel;temperature;humidity
6218;BME280;3142;48.206;11.550;2024-02-14T00:00:14;96195.69;;;6.97;62.25
6218;BME280;3142;48.206;11.550;2024-02-14T00:02:41;96201.06;;;6.95;61.56
6218;BME280;3142;48.206;11.550;2024-02-14T00:05:07;96198.63;;;6.94;62.52
6218;BME280;3142;48.206;11.550;2024-02-14T00:07:35;96202.84;;;6.95;62.17
6218;BME280;3142;48.206;11.550;2024-02-14T00:10:02;96204.97;;;6.91;62.62
6218;BME280;3142;48.206;11.550;2024-02-14T00:12:30;96208.72;;;6.89;62.02
6218;BME280;3142;48.206;11.550;2024-02-14T00:14:57;96205.47;;;6.87;62.08
6218;BME280;3142;48.206;11.550;2024-02-14T00:17:25;96208.09;;;6.87;61.80
6218;BME280;3142;48.206;11.550;2024-02-14T00:19:51;96209.38;;;6.82;61.97
6218;BME280;3142;48.206;11.550;2024-02-14T00:22:18;96210.69;;;6.78;61.95
6218;BME280;3142;48.206;11.550;2024-02-14T00:24:44;96207.44;;;6.76;62.47
6218;BME280;3142;48.206;11.550;2024-02-14T00:27:11;96205.34;;;6.72;62.72
6218;BME280;3142;48.206;11.550;2024-02-14T00:29:39;96198.97;;;6.66;62.50
6218;BME280;3142;48.206;11.550;2024-02-14T00:32:06;96204.97;;;6.67;63.05
6218;BME280;3142;48.206;11.550;2024-02-14T00:37:02;96204.66;;;6.70;62.32
6218;BME280;3142;48.206;11.550;2024-02-14T00:39:29;96203.69;;;6.71;62.20
6218;BME280;3142;48.206;11.550;2024-02-14T00:41:55;96203.84;;;6.69;63.02
6218;BME280;3142;48.206;11.550;2024-02-14T00:44:22;96208.41;;;6.67;62.57
6218;BME280;3142;48.206;11.550;2024-02-14T00:46:48;96212.63;;;6.68;63.13
6218;BME280;3142;48.206;11.550;2024-02-14T00:49:15;96213.25;;;6.70;62.95
6218;BME280;3142;48.206;11.550;2024-02-14T00:51:41;96213.13;;;6.72;62.51
6218;BME280;3142;48.206;11.550;2024-02-14T00:54:09;96212.00;;;6.74;61.97
6218;BME280;3142;48.206;11.550;2024-02-14T00:56:36;96208.22;;;6.69;62.89
6218;BME280;3142;48.206;11.550;2024-02-14T00:59:02;96208.41;;;6.59;62.70
6218;BME280;3142;48.206;11.550;2024-02-14T01:01:29;96207.75;;;6.65;63.00
6218;BME280;3142;48.206;11.550;2024-02-14T01:03:55;96208.56;;;6.66;62.96
6218;BME280;3142;48.206;11.550;2024-02-14T01:06:21;96211.34;;;6.64;62.89
6218;BME280;3142;48.206;11.550;2024-02-14T01:08:48;96218.16;;;6.65;62.68
6218;BME280;3142;48.206;11.550;2024-02-14T01:11:16;96224.66;;;6.69;62.69
6218;BME280;3142;48.206;11.550;2024-02-14T01:13:42;96228.41;;;6.75;62.68
6218;BME280;3142;48.206;11.550;2024-02-14T01:16:09;96218.00;;;6.75;62.59
6218;BME280;3142;48.206;11.550;2024-02-14T01:18:35;96220.94;;;6.72;62.91
6218;BME280;3142;48.206;11.550;2024-02-14T01:21:02;96219.28;;;6.71;63.09
6218;BME280;3142;48.206;11.550;2024-02-14T01:23:28;96220.41;;;6.68;63.60
6218;BME280;3142;48.206;11.550;2024-02-14T01:25:55;96219.94;;;6.73;63.56
6218;BME280;3142;48.206;11.550;2024-02-14T01:28:23;96215.22;;;6.76;63.35
6218;BME280;3142;48.206;11.550;2024-02-14T01:30:49;96209.38;;;6.82;63.02
6218;BME280;3142;48.206;11.550;2024-02-14T01:33:16;96216.53;;;6.89;63.00
6218;BME280;3142;48.206;11.550;2024-02-14T01:35:43;96212.78;;;6.91;62.59
6218;BME280;3142;48.206;11.550;2024-02-14T01:38:09;96218.97;;;6.90;62.67
6218;BME280;3142;48.206;11.550;2024-02-14T01:40:37;96215.72;;;6.88;62.13
6218;BME280;3142;48.206;11.550;2024-02-14T01:43:04;96213.59;;;6.92;62.18
6218;BME280;3142;48.206;11.550;2024-02-14T01:45:31;96211.50;;;6.87;61.89
6218;BME280;3142;48.206;11.550;2024-02-14T01:47:58;96213.94;;;6.89;62.30
6218;BME280;3142;48.206;11.550;2024-02-14T01:50:24;96214.91;;;6.88;62.10
6218;BME280;3142;48.206;11.550;2024-02-14T01:52:55;96221.91;;;6.87;62.02
6218;BME280;3142;48.206;11.550;2024-02-14T01:55:23;96220.09;;;6.88;62.44
6218;BME280;3142;48.206;11.550;2024-02-14T01:57:52;96222.88;;;6.86;62.43
6218;BME280;3142;48.206;11.550;2024-02-14T02:00:19;96225.94;;;6.81;62.34
6218;BME280;3142;48.206;11.550;2024-02-14T02:02:46;96214.72;;;6.81;62.68
6218;BME280;3142;48.206;11.550;2024-02-14T02:05:13;96218.81;;;6.75;62.67
6218;BME280;3142;48.206;11.550;2024-02-14T02:07:41;96226.59;;;6.75;63.14
6218;BME280;3142;48.206;11.550;2024-02-14T02:10:09;96226.13;;;6.72;62.64
6218;BME280;3142;48.206;11.550;2024-02-14T02:12:36;96222.84;;;6.70;62.26
6218;BME280;3142;48.206;11.550;2024-02-14T02:15:04;96214.91;;;6.63;62.46
6218;BME280;3142;48.206;11.550;2024-02-14T02:17:31;96218.66;;;6.61;62.82
6218;BME280;3142;48.206;11.550;2024-02-14T02:20:00;96223.50;;;6.56;62.50
6218;BME280;3142;48.206;11.550;2024-02-14T02:22:27;96226.91;;;6.48;63.12
6218;BME280;3142;48.206;11.550;2024-02-14T02:24:58;96224.16;;;6.49;62.31
6218;BME280;3142;48.206;11.550;2024-02-14T02:27:25;96222.19;;;6.43;62.77
6218;BME280;3142;48.206;11.550;2024-02-14T02:29:51;96230.47;;;6.39;63.04
6218;BME280;3142;48.206;11.550;2024-02-14T02:32:18;96225.44;;;6.37;62.87
6218;BME280;3142;48.206;11.550;2024-02-14T02:34:44;96229.81;;;6.37;62.75
6218;BME280;3142;48.206;11.550;2024-02-14T02:37:11;96221.03;;;6.30;62.78
6218;BME280;3142;48.206;11.550;2024-02-14T02:39:37;96217.50;;;6.31;62.59
6218;BME280;3142;48.206;11.550;2024-02-14T02:42:06;96220.88;;;6.23;62.30
6218;BME280;3142;48.206;11.550;2024-02-14T02:44:33;96226.72;;;6.25;62.70
6218;BME280;3142;48.206;11.550;2024-02-14T02:47:03;96222.81;;;6.21;62.50
6218;BME280;3142;48.206;11.550;2024-02-14T02:49:29;96222.97;;;6.19;62.83
6218;BME280;3142;48.206;11.550;2024-02-14T02:51:56;96225.88;;;6.16;62.79
6218;BME280;3142;48.206;11.550;2024-02-14T02:54:22;96226.03;;;6.15;63.10
6218;BME280;3142;48.206;11.550;2024-02-14T02:56:49;96217.78;;;6.19;62.62
6218;BME280;3142;48.206;11.550;2024-02-14T02:59:16;96218.75;;;6.18;62.85
6218;BME280;3142;48.206;11.550;2024-02-14T03:01:43;96224.59;;;6.20;62.61
6218;BME280;3142;48.206;11.550;2024-02-14T03:04:10;96219.41;;;6.20;62.99
6218;BME280;3142;48.206;11.550;2024-02-14T03:06:38;96222.66;;;6.22;62.79
6218;BME280;3142;48.206;11.550;2024-02-14T03:09:05;96215.03;;;6.21;63.00
6218;BME280;3142;48.206;11.550;2024-02-14T03:11:32;96219.91;;;6.24;62.59
6218;BME280;3142;48.206;11.550;2024-02-14T03:14:01;96230.78;;;6.28;63.07
6218;BME280;3142;48.206;11.550;2024-02-14T03:16:28;96232.75;;;6.34;62.30
6218;BME280;3142;48.206;11.550;2024-02-14T03:18:55;96228.53;;;6.41;62.17
6218;BME280;3142;48.206;11.550;2024-02-14T03:21:21;96236.84;;;6.44;62.24
6218;BME280;3142;48.206;11.550;2024-02-14T03:23:48;96222.53;;;6.48;62.32
6218;BME280;3142;48.206;11.550;2024-02-14T03:26:14;96225.31;;;6.47;61.91
6218;BME280;3142;48.206;11.550;2024-02-14T03:28:41;96232.28;;;6.46;62.08
6218;BME280;3142;48.206;11.550;2024-02-14T03:31:08;96225.09;;;6.40;62.25
6218;BME280;3142;48.206;11.550;2024-02-14T03:33:38;96220.56;;;6.34;62.51
6218;BME280;3142;48.206;11.550;2024-02-14T03:36:05;96227.06;;;6.38;62.31
6218;BME280;3142;48.206;11.550;2024-02-14T03:38:31;96225.59;;;6.44;62.69
6218;BME280;3142;48.206;11.550;2024-02-14T03:40:58;96235.03;;;6.37;62.59
6218;BME280;3142;48.206;11.550;2024-02-14T03:43:24;96228.69;;;6.39;61.90
6218;BME280;3142;48.206;11.550;2024-02-14T03:45:50;96233.72;;;6.41;61.50
6218;BME280;3142;48.206;11.550;2024-02-14T03:48:17;96226.91;;;6.40;62.26
6218;BME280;3142;48.206;11.550;2024-02-14T03:50:45;96235.03;;;6.37;61.65
6218;BME280;3142;48.206;11.550;2024-02-14T03:53:11;96229.81;;;6.37;62.06
6218;BME280;3142;48.206;11.550;2024-02-14T03:55:40;96234.69;;;6.40;61.80
6218;BME280;3142;48.206;11.550;2024-02-14T03:58:06;96230.81;;;6.36;62.41
6218;BME280;3142;48.206;11.550;2024-02-14T04:00:33;96231.13;;;6.33;62.00
6218;BME280;3142;48.206;11.550;2024-02-14T04:03:00;96228.34;;;6.26;62.13
6218;BME280;3142;48.206;11.550;2024-02-14T04:05:27;96228.19;;;6.19;62.45
6218;BME280;3142;48.206;11.550;2024-02-14T04:07:55;96227.53;;;6.17;62.36
6218;BME280;3142;48.206;11.550;2024-02-14T04:10:22;96226.03;;;6.15;61.86
6218;BME280;3142;48.206;11.550;2024-02-14T04:12:49;96229.44;;;6.15;62.42
6218;BME280;3142;48.206;11.550;2024-02-14T04:15:15;96220.53;;;6.10;62.27
6218;BME280;3142;48.206;11.550;2024-02-14T04:17:42;96232.00;;;5.99;62.51
6218;BME280;3142;48.206;11.550;2024-02-14T04:20:09;96216.59;;;5.98;62.21
6218;BME280;3142;48.206;11.550;2024-02-14T04:22:36;96222.09;;;5.94;62.50
6218;BME280;3142;48.206;11.550;2024-02-14T04:25:04;96226.97;;;5.98;62.28
6218;BME280;3142;48.206;11.550;2024-02-14T04:27:31;96228.91;;;5.96;62.10
6218;BME280;3142;48.206;11.550;2024-02-14T04:29:57;96229.56;;;5.98;62.14
6218;BME280;3142;48.206;11.550;2024-02-14T04:32:23;96229.72;;;5.96;62.04
6218;BME280;3142;48.206;11.550;2024-02-14T04:34:50;96227.63;;;6.00;61.97
6218;BME280;3142;48.206;11.550;2024-02-14T04:37:17;96232.50;;;6.03;61.99
6218;BME280;3142;48.206;11.550;2024-02-14T04:39:44;96228.47;;;6.08;61.87
6218;BME280;3142;48.206;11.550;2024-02-14T04:42:12;96230.41;;;6.14;61.77
6218;BME280;3142;48.206;11.550;2024-02-14T04:44:38;96228.19;;;6.19;61.71
6218;BME280;3142;48.206;11.550;2024-02-14T04:47:05;96222.97;;;6.28;61.14
6218;BME280;3142;48.206;11.550;2024-02-14T04:49:31;96226.88;;;6.23;61.37
6218;BME280;3142;48.206;11.550;2024-02-14T04:51:58;96229.97;;;6.27;62.00
6218;BME280;3142;48.206;11.550;2024-02-14T04:54:24;96224.28;;;6.23;61.90
6218;BME280;3142;48.206;11.550;2024-02-14T04:56:51;96228.47;;;6.16;61.24
6218;BME280;3142;48.206;11.550;2024-02-14T04:59:19;96231.75;;;6.18;61.41
6218;BME280;3142;48.206;11.550;2024-02-14T05:01:45;96225.41;;;6.21;61.37
6218;BME280;3142;48.206;11.550;2024-02-14T05:04:12;96230.94;;;6.26;61.04
6218;BME280;3142;48.206;11.550;2024-02-14T05:06:39;96215.34;;;6.26;61.37
6218;BME280;3142;48.206;11.550;2024-02-14T05:09:07;96219.72;;;6.26;61.21
6218;BME280;3142;48.206;11.550;2024-02-14T05:11:35;96225.28;;;6.31;60.70
6218;BME280;3142;48.206;11.550;2024-02-14T05:14:02;96224.97;;;6.34;60.60
6218;BME280;3142;48.206;11.550;2024-02-14T05:16:30;96218.94;;;6.33;60.32
6218;BME280;3142;48.206;11.550;2024-02-14T05:18:56;96214.56;;;6.34;60.32
6218;BME280;3142;48.206;11.550;2024-02-14T05:21:23;96215.69;;;6.39;60.37
6218;BME280;3142;48.206;11.550;2024-02-14T05:23:49;96209.19;;;6.35;60.12
6218;BME280;3142;48.206;11.550;2024-02-14T05:26:16;96215.22;;;6.36;59.73
6218;BME280;3142;48.206;11.550;2024-02-14T05:28:42;96211.31;;;6.32;59.75
6218;BME280;3142;48.206;11.550;2024-02-14T05:31:09;96215.19;;;6.28;60.53
6218;BME280;3142;48.206;11.550;2024-02-14T05:33:36;96218.31;;;6.31;60.12
6218;BME280;3142;48.206;11.550;2024-02-14T05:36:03;96221.53;;;6.33;60.04
6218;BME280;3142;48.206;11.550;2024-02-14T05:38:31;96212.13;;;6.32;60.03
6218;BME280;3142;48.206;11.550;2024-02-14T05:40:58;96223.94;;;6.27;60.45
6218;BME280;3142;48.206;11.550;2024-02-14T05:43:25;96218.75;;;6.27;60.52
6218;BME280;3142;48.206;11.550;2024-02-14T05:45:52;96226.56;;;6.27;60.20
6218;BME280;3142;48.206;11.550;2024-02-14T05:48:19;96220.38;;;6.28;60.26
6218;BME280;3142;48.206;11.550;2024-02-14T05:50:47;96227.19;;;6.29;60.28
6218;BME280;3142;48.206;11.550;2024-02-14T05:53:13;96222.81;;;6.21;60.14
6218;BME280;3142;48.206;11.550;2024-02-14T05:55:40;96228.81;;;6.21;60.63
6218;BME280;3142;48.206;11.550;2024-02-14T05:58:06;96229.63;;;6.22;60.29
6218;BME280;3142;48.206;11.550;2024-02-14T06:00:32;96234.69;;;6.23;60.04
6218;BME280;3142;48.206;11.550;2024-02-14T06:02:59;96242.13;;;6.18;60.39
6218;BME280;3142;48.206;11.550;2024-02-14T06:05:25;96238.91;;;6.24;60.71
6218;BME280;3142;48.206;11.550;2024-02-14T06:07:53;96241.66;;;6.23;60.27
6218;BME280;3142;48.206;11.550;2024-02-14T06:10:20;96241.97;;;6.28;60.18
6218;BME280;3142;48.206;11.550;2024-02-14T06:12:47;96244.41;;;6.30;60.64
6218;BME280;3142;48.206;11.550;2024-02-14T06:15:14;96244.13;;;6.33;60.19
6218;BME280;3142;48.206;11.550;2024-02-14T06:17:57;96252.41;;;6.36;60.53
6218;BME280;3142;48.206;11.550;2024-02-14T06:20:23;96243.31;;;6.32;60.41
6218;BME280;3142;48.206;11.550;2024-02-14T06:22:50;96244.78;;;6.35;60.22
6218;BME280;3142;48.206;11.550;2024-02-14T06:25:18;96249.97;;;6.35;60.81
6218;BME280;3142;48.206;11.550;2024-02-14T06:27:45;96251.75;;;6.34;60.56
6218;BME280;3142;48.206;11.550;2024-02-14T06:30:12;96252.41;;;6.36;60.52
6218;BME280;3142;48.206;11.550;2024-02-14T06:32:38;96269.44;;;6.39;60.10
6218;BME280;3142;48.206;11.550;2024-02-14T06:35:05;96250.28;;;6.40;60.61
6218;BME280;3142;48.206;11.550;2024-02-14T06:37:32;96256.13;;;6.42;60.88
6218;BME280;3142;48.206;11.550;2024-02-14T06:39:58;96259.41;;;6.52;60.12
6218;BME280;3142;48.206;11.550;2024-02-14T06:42:26;96256.47;;;6.55;60.72
6218;BME280;3142;48.206;11.550;2024-02-14T06:44:52;96256.03;;;6.60;60.34
6218;BME280;3142;48.206;11.550;2024-02-14T06:47:19;96264.47;;;6.62;60.35
6218;BME280;3142;48.206;11.550;2024-02-14T06:49:45;96257.63;;;6.61;60.36
6218;BME280;3142;48.206;11.550;2024-02-14T06:52:12;96250.66;;;6.61;60.13
6218;BME280;3142;48.206;11.550;2024-02-14T06:54:38;96253.91;;;6.63;59.99
6218;BME280;3142;48.206;11.550;2024-02-14T06:57:05;96251.63;;;6.68;60.65
6218;BME280;3142;48.206;11.550;2024-02-14T06:59:34;96256.66;;;6.70;60.60
6218;BME280;3142;48.206;11.550;2024-02-14T07:02:02;96251.16;;;6.73;60.41
6218;BME280;3142;48.206;11.550;2024-02-14T07:04:28;96252.94;;;6.72;60.96
6218;BME280;3142;48.206;11.550;2024-02-14T07:06:55;96255.22;;;6.75;60.55
6218;BME280;3142;48.206;11.550;2024-02-14T07:09:21;96261.53;;;6.81;60.41
6218;BME280;3142;48.206;11.550;2024-02-14T07:11:47;96267.88;;;6.78;60.26
6218;BME280;3142;48.206;11.550;2024-02-14T07:14:14;96274.06;;;6.77;60.62
6218;BME280;3142;48.206;11.550;2024-02-14T07:16:42;96289.34;;;6.80;60.16
6218;BME280;3142;48.206;11.550;2024-02-14T07:19:08;96277.31;;;6.88;61.02
6218;BME280;3142;48.206;11.550;2024-02-14T07:21:35;96283.47;;;6.95;60.71
6218;BME280;3142;48.206;11.550;2024-02-14T07:24:03;96288.69;;;7.03;60.38
6218;BME280;3142;48.206;11.550;2024-02-14T07:26:30;96285.25;;;7.10;60.58
6218;BME280;3142;48.206;11.550;2024-02-14T07:28:55;96292.59;;;7.15;60.72
6218;BME280;3142;48.206;11.550;2024-02-14T07:31:21;96290.13;;;7.22;60.08
6218;BME280;3142;48.206;11.550;2024-02-14T07:33:49;96285.59;;;7.32;60.00
6218;BME280;3142;48.206;11.550;2024-02-14T07:36:18;96287.72;;;7.28;59.56
6218;BME280;3142;48.206;11.550;2024-02-14T07:38:45;96301.38;;;7.30;59.94
6218;BME280;3142;48.206;11.550;2024-02-14T07:41:11;96298.09;;;7.36;59.58
6218;BME280;3142;48.206;11.550;2024-02-14T07:43:37;96297.75;;;7.39;59.25
6218;BME280;3142;48.206;11.550;2024-02-14T07:46:04;96310.63;;;7.41;59.81
6218;BME280;3142;48.206;11.550;2024-02-14T07:48:32;96309.16;;;7.47;58.82
6218;BME280;3142;48.206;11.550;2024-02-14T07:51:00;96309.78;;;7.49;59.44
6218;BME280;3142;48.206;11.550;2024-02-14T07:53:26;96312.06;;;7.52;59.11
6218;BME280;3142;48.206;11.550;2024-02-14T07:55:53;96310.44;;;7.51;59.30
6218;BME280;3142;48.206;11.550;2024-02-14T07:58:20;96310.09;;;7.54;58.78
6218;BME280;3142;48.206;11.550;2024-02-14T08:00:46;96310.09;;;7.54;58.73
6218;BME280;3142;48.206;11.550;2024-02-14T08:03:13;96314.19;;;7.56;59.21
6218;BME280;3142;48.206;11.550;2024-02-14T08:05:39;96310.44;;;7.59;58.72
6218;BME280;3142;48.206;11.550;2024-02-14T08:08:08;96312.06;;;7.60;57.57
6218;BME280;3142;48.206;11.550;2024-02-14T08:10:34;96307.66;;;7.60;57.99
6218;BME280;3142;48.206;11.550;2024-02-14T08:13:00;96310.41;;;7.67;57.97
6218;BME280;3142;48.206;11.550;2024-02-14T08:15:29;96306.00;;;7.67;58.11
6218;BME280;3142;48.206;11.550;2024-02-14T08:17:56;96316.13;;;7.70;57.84
6218;BME280;3142;48.206;11.550;2024-02-14T08:20:24;96319.19;;;7.74;58.32
6218;BME280;3142;48.206;11.550;2024-02-14T08:22:50;96324.06;;;7.77;58.08
6218;BME280;3142;48.206;11.550;2024-02-14T08:25:18;96313.97;;;7.82;56.70
6218;BME280;3142;48.206;11.550;2024-02-14T08:27:45;96323.06;;;7.86;57.85
6218;BME280;3142;48.206;11.550;2024-02-14T08:30:13;96321.28;;;7.87;58.15
6218;BME280;3142;48.206;11.550;2024-02-14T08:32:40;96323.03;;;7.94;56.82
6218;BME280;3142;48.206;11.550;2024-02-14T08:35:07;96324.00;;;8.01;57.32
6218;BME280;3142;48.206;11.550;2024-02-14T08:37:35;96317.56;;;8.20;56.76
6218;BME280;3142;48.206;11.550;2024-02-14T08:40:04;96317.00;;;8.33;57.21
6218;BME280;3142;48.206;11.550;2024-02-14T08:42:32;96321.25;;;8.42;56.92
6218;BME280;3142;48.206;11.550;2024-02-14T08:44:59;96316.16;;;8.49;56.63
6218;BME280;3142;48.206;11.550;2024-02-14T08:47:25;96315.84;;;8.52;55.24
6218;BME280;3142;48.206;11.550;2024-02-14T08:49:52;96312.25;;;8.53;55.84
6218;BME280;3142;48.206;11.550;2024-02-14T08:52:19;96302.06;;;8.66;55.38
6218;BME280;3142;48.206;11.550;2024-02-14T08:54:46;96306.44;;;8.88;54.53
6218;BME280;3142;48.206;11.550;2024-02-14T08:57:12;96312.72;;;9.02;55.11
6218;BME280;3142;48.206;11.550;2024-02-14T08:59:40;96311.03;;;9.09;55.09
6218;BME280;3142;48.206;11.550;2024-02-14T09:02:09;96311.53;;;9.28;53.67
6218;BME280;3142;48.206;11.550;2024-02-14T09:04:35;96313.56;;;9.40;52.91
6218;BME280;3142;48.206;11.550;2024-02-14T09:07:02;96317.31;;;9.61;53.37
6218;BME280;3142;48.206;11.550;2024-02-14T09:09:29;96316.09;;;10.52;51.61
6218;BME280;3142;48.206;11.550;2024-02-14T09:11:56;96323.81;;;10.75;50.85
6218;BME280;3142;48.206;11.550;2024-02-14T09:14:22;96311.41;;;10.62;51.41
6218;BME280;3142;48.206;11.550;2024-02-14T09:16:50;96315.88;;;10.68;50.59
6218;BME280;3142;48.206;11.550;2024-02-14T09:19:16;96309.53;;;10.56;50.82
6218;BME280;3142;48.206;11.550;2024-02-14T09:21:43;96311.63;;;10.46;50.64
6218;BME280;3142;48.206;11.550;2024-02-14T09:24:09;96311.66;;;10.31;51.05
6218;BME280;3142;48.206;11.550;2024-02-14T09:26:36;96308.13;;;10.24;51.18
6218;BME280;3142;48.206;11.550;2024-02-14T09:29:03;96315.59;;;10.12;51.39
6218;BME280;3142;48.206;11.550;2024-02-14T09:31:30;96310.72;;;10.09;50.40
6218;BME280;3142;48.206;11.550;2024-02-14T09:33:58;96311.09;;;10.06;51.02
6218;BME280;3142;48.206;11.550;2024-02-14T09:36:24;96306.22;;;10.03;50.61
6218;BME280;3142;48.206;11.550;2024-02-14T09:38:51;96306.06;;;10.04;49.88
6218;BME280;3142;48.206;11.550;2024-02-14T09:41:22;96303.25;;;10.06;50.65
6218;BME280;3142;48.206;11.550;2024-02-14T09:43:49;96315.16;;;10.08;50.91
6218;BME280;3142;48.206;11.550;2024-02-14T09:46:15;96309.22;;;10.15;50.01
6218;BME280;3142;48.206;11.550;2024-02-14T09:48:43;96316.06;;;10.16;50.10
6218;BME280;3142;48.206;11.550;2024-02-14T09:51:12;96313.06;;;10.19;50.32
6218;BME280;3142;48.206;11.550;2024-02-14T09:53:39;96313.53;;;10.22;50.76
6218;BME280;3142;48.206;11.550;2024-02-14T09:56:08;96311.84;;;10.29;50.36
6218;BME280;3142;48.206;11.550;2024-02-14T09:58:35;96307.56;;;10.43;50.20
6218;BME280;3142;48.206;11.550;2024-02-14T10:01:03;96307.88;;;10.55;49.95
6218;BME280;3142;48.206;11.550;2024-02-14T10:03:30;96301.50;;;10.57;49.94
6218;BME280;3142;48.206;11.550;2024-02-14T10:05:56;96301.56;;;10.64;50.10
6218;BME280;3142;48.206;11.550;2024-02-14T10:08:24;96292.94;;;10.85;49.68
6218;BME280;3142;48.206;11.550;2024-02-14T10:10:51;96295.66;;;11.19;49.17
6218;BME280;3142;48.206;11.550;2024-02-14T10:13:18;96287.19;;;11.45;48.41
6218;BME280;3142;48.206;11.550;2024-02-14T10:15:45;96292.03;;;11.76;47.73
6218;BME280;3142;48.206;11.550;2024-02-14T10:18:11;96284.66;;;12.21;47.55
6218;BME280;3142;48.206;11.550;2024-02-14T10:20:39;96275.31;;;12.66;45.48
6218;BME280;3142;48.206;11.550;2024-02-14T10:23:10;96275.59;;;13.11;45.97
6218;BME280;3142;48.206;11.550;2024-02-14T10:25:38;96279.25;;;13.03;44.63
6218;BME280;3142;48.206;11.550;2024-02-14T10:28:05;96275.56;;;12.98;45.18
6218;BME280;3142;48.206;11.550;2024-02-14T10:30:33;96281.44;;;13.00;44.67
6218;BME280;3142;48.206;11.550;2024-02-14T10:33:00;96282.69;;;13.04;44.31
6218;BME280;3142;48.206;11.550;2024-02-14T10:35:30;96270.28;;;13.97;42.19
6218;BME280;3142;48.206;11.550;2024-02-14T10:37:57;96267.72;;;14.80;41.80
6218;BME280;3142;48.206;11.550;2024-02-14T10:40:27;96270.97;;;15.38;40.72
6218;BME280;3142;48.206;11.550;2024-02-14T10:42:55;96280.63;;;15.76;40.38
6218;BME280;3142;48.206;11.550;2024-02-14T10:45:23;96261.34;;;16.12;39.26
6218;BME280;3142;48.206;11.550;2024-02-14T10:47:51;96272.38;;;15.91;39.45
6218;BME280;3142;48.206;11.550;2024-02-14T10:50:21;96262.53;;;15.30;40.13
6218;BME280;3142;48.206;11.550;2024-02-14T10:52:48;96279.81;;;14.56;41.93
6218;BME280;3142;48.206;11.550;2024-02-14T10:55:16;96278.56;;;14.07;42.77
6218;BME280;3142;48.206;11.550;2024-02-14T10:57:43;96274.56;;;13.78;42.54
6218;BME280;3142;48.206;11.550;2024-02-14T11:00:15;96276.19;;;13.86;43.18
6218;BME280;3142;48.206;11.550;2024-02-14T11:02:43;96278.03;;;14.43;42.85
6218;BME280;3142;48.206;11.550;2024-02-14T11:05:14;96268.97;;;15.09;41.35
6218;BME280;3142;48.206;11.550;2024-02-14T11:07:44;96261.00;;;15.16;41.21
6218;BME280;3142;48.206;11.550;2024-02-14T11:10:13;96263.34;;;15.30;40.76
6218;BME280;3142;48.206;11.550;2024-02-14T11:12:40;96264.59;;;15.96;40.01
6218;BME280;3142;48.206;11.550;2024-02-14T11:15:15;96261.81;;;16.09;39.88
6218;BME280;3142;48.206;11.550;2024-02-14T11:17:42;96262.53;;;16.35;39.37
6218;BME280;3142;48.206;11.550;2024-02-14T11:20:17;96254.91;;;16.45;38.99
6218;BME280;3142;48.206;11.550;2024-02-14T11:22:54;96252.28;;;16.75;39.57
6218;BME280;3142;48.206;11.550;2024-02-14T11:25:31;96255.78;;;16.87;39.35
6218;BME280;3142;48.206;11.550;2024-02-14T11:27:58;96242.69;;;16.92;38.72
6218;BME280;3142;48.206;11.550;2024-02-14T11:30:34;96251.44;;;16.26;39.81
6218;BME280;3142;48.206;11.550;2024-02-14T11:33:13;96237.44;;;16.25;39.79
6218;BME280;3142;48.206;11.550;2024-02-14T11:35:41;96241.25;;;16.11;40.33
6218;BME280;3142;48.206;11.550;2024-02-14T11:38:08;96231.72;;;15.74;41.17
6218;BME280;3142;48.206;11.550;2024-02-14T11:40:34;96239.13;;;15.40;42.06
6218;BME280;3142;48.206;11.550;2024-02-14T11:43:01;96236.13;;;15.11;43.20
6218;BME280;3142;48.206;11.550;2024-02-14T11:45:27;96228.19;;;14.87;43.26
6218;BME280;3142;48.206;11.550;2024-02-14T11:47:55;96233.41;;;14.62;43.96
6218;BME280;3142;48.206;11.550;2024-02-14T11:50:22;96237.72;;;14.43;44.13
6218;BME280;3142;48.206;11.550;2024-02-14T11:52:48;96237.59;;;14.31;45.04
6218;BME280;3142;48.206;11.550;2024-02-14T11:55:17;96230.75;;;14.17;45.07
6218;BME280;3142;48.206;11.550;2024-02-14T11:57:44;96228.13;;;14.10;45.82
6218;BME280;3142;48.206;11.550;2024-02-14T12:00:13;96222.88;;;14.10;45.80
6218;BME280;3142;48.206;11.550;2024-02-14T12:02:39;96226.31;;;14.11;45.54
6218;BME280;3142;48.206;11.550;2024-02-14T12:05:08;96222.47;;;14.13;46.30
6218;BME280;3142;48.206;11.550;2024-02-14T12:07:34;96217.38;;;14.18;46.00
6218;BME280;3142;48.206;11.550;2024-02-14T12:10:01;96227.28;;;14.23;46.09
6218;BME280;3142;48.206;11.550;2024-02-14T12:12:28;96229.47;;;14.33;46.96
6218;BME280;3142;48.206;11.550;2024-02-14T12:14:55;96232.66;;;14.48;46.46
6218;BME280;3142;48.206;11.550;2024-02-14T12:17:21;96228.34;;;14.60;45.56
6218;BME280;3142;48.206;11.550;2024-02-14T12:19:48;96233.66;;;14.85;45.75
6218;BME280;3142;48.206;11.550;2024-02-14T12:22:17;96227.06;;;15.01;45.78
6218;BME280;3142;48.206;11.550;2024-02-14T12:24:44;96230.28;;;15.03;46.34
6218;BME280;3142;48.206;11.550;2024-02-14T12:27:10;96223.28;;;14.90;47.05
6218;BME280;3142;48.206;11.550;2024-02-14T12:29:37;96231.28;;;14.77;47.25
6218;BME280;3142;48.206;11.550;2024-02-14T12:32:05;96232.44;;;14.56;47.90
6218;BME280;3142;48.206;11.550;2024-02-14T12:34:32;96223.16;;;14.40;48.02
6218;BME280;3142;48.206;11.550;2024-02-14T12:36:59;96231.50;;;14.31;48.31
6218;BME280;3142;48.206;11.550;2024-02-14T12:39:27;96227.44;;;14.35;48.37
6218;BME280;3142;48.206;11.550;2024-02-14T12:41:54;96220.72;;;14.39;47.53
6218;BME280;3142;48.206;11.550;2024-02-14T12:44:21;96222.94;;;14.42;48.34
6218;BME280;3142;48.206;11.550;2024-02-14T12:46:47;96226.41;;;14.36;48.28
6218;BME280;3142;48.206;11.550;2024-02-14T12:49:14;96226.66;;;14.28;47.97
6218;BME280;3142;48.206;11.550;2024-02-14T12:51:40;96231.19;;;14.14;48.41
6218;BME280;3142;48.206;11.550;2024-02-14T12:54:07;96227.78;;;14.00;50.23
6218;BME280;3142;48.206;11.550;2024-02-14T12:56:38;96233.09;;;13.80;50.87
6218;BME280;3142;48.206;11.550;2024-02-14T12:59:05;96236.78;;;13.73;51.95
6218;BME280;3142;48.206;11.550;2024-02-14T13:01:31;96235.97;;;13.66;53.77
6218;BME280;3142;48.206;11.550;2024-02-14T13:03:58;96233.97;;;13.61;53.40
6218;BME280;3142;48.206;11.550;2024-02-14T13:06:25;96230.13;;;13.57;52.58
6218;BME280;3142;48.206;11.550;2024-02-14T13:08:51;96236.41;;;13.49;52.70
6218;BME280;3142;48.206;11.550;2024-02-14T13:11:17;96228.72;;;13.41;52.59
6218;BME280;3142;48.206;11.550;2024-02-14T13:13:46;96225.31;;;13.34;53.19
6218;BME280;3142;48.206;11.550;2024-02-14T13:16:13;96233.38;;;13.32;54.07
6218;BME280;3142;48.206;11.550;2024-02-14T13:18:39;96228.72;;;13.34;53.15